North Palm Beach, FL (33408)

12:37 AM EDT on August 27, 2016 (GMT -0400)
| | Change Station

Elev -9999 ft 0.00 °N, 0.00 °E | Updated

Mostly Cloudy
Mostly Cloudy
82 °F
Feels Like 90 °F
N
6
Wind Variable Wind from ENE
Gusts mph

Today
High -- | Low -- °F
--% Chance of Precip.
Yesterday
High -- | Low -- °F
Precip. -- in
Pressure 29.97 in
Visibility 10.0 miles
Clouds Few 2800 ft
Few 4500 ft
Mostly Cloudy 20000 ft
Heat Index 90 °F
Dew Point 76 °F
Humidity 83%
Rainfall --
Snow Depth Not available.
6:57 AM 7:45 PM
Waning Crescent, 28% visible
METAR KPBI 270353Z 09006KT 10SM FEW028 FEW045 BKN200 29/24 A2997 RMK AO2 LTG DSNT S AND SW SLP149 OCNL LTGIC DSNT E AND DSNT S T02890244
Pressure 29.97 in
Visibility 10.0 miles
Clouds Few 2800 ft
Few 4500 ft
Mostly Cloudy 20000 ft
Heat Index 90 °F
Dew Point 76 °F
Humidity 83%
Rainfall --
Snow Depth Not available.
6:57 AM 7:45 PM
Waning Crescent, 28% visible
METAR KPBI 270353Z 09006KT 10SM FEW028 FEW045 BKN200 29/24 A2997 RMK AO2 LTG DSNT S AND SW SLP149 OCNL LTGIC DSNT E AND DSNT S T02890244

10-Day Weather Forecast

Almanac

Astronomy

Aug. 27, 2016 Rise Set
Actual Time
Civil Twilight
Nautical Twilight
Astronomical Twilight
Moon
Length of Visible Light
Length of Day
Tomorrow will be .
, % of the Moon is Illuminated

Today's Extremes

State Highs State Lows

Community

WunderPhotos

Upload Photos

1,935,299 photos uploaded!

WunderBlog® & News

Nearby

Air Quality

  Air Quality AQ Index Pollutant
Not available.

Snow Depth

Station Depth Elevation

Earthquake Activity

City Distance Mag. Time & Date
Minimum magnitude displayed is 2.5.

Coastal Water Temperatures

Place Temperature

Stations

Nearby Weather Stations

Station Location Temp. Windchill Dew Point Humidity Wind Precip. Elev Updated Type
                   

Watches & Warnings

There are currently no watches in effect.